Time;durP1;ratioP1;P1;durP2;ratioP2;P2;SDS_P1;SDS_P2;PMS_P1;PMS_P2;Temp;Humidity;BMP_temperature;BMP_pressure;BME280_temperature;BME280_humidity;BME280_pressure;Samples;Min_cycle;Max_cycle;Signal;HPM_P1;HPM_P2
2024/01/14 00:00:00;;;;;;;33.90;11.50;;;;;;;3.12;81.95;99243.70;104634;1259;76041;-60
2024/01/14 00:02:27;;;;;;;26.60;8.70;;;;;;;3.12;81.91;99240.23;104463;1263;139812;-65
2024/01/14 00:04:54;;;;;;;15.20;5.50;;;;;;;3.12;81.97;99236.92;104701;1261;73349;-65
2024/01/14 00:07:21;;;;;;;59.40;21.50;;;;;;;3.09;81.85;99234.60;104802;1260;61167;-66
2024/01/14 00:09:47;;;;;;;60.10;24.90;;;;;;;3.05;81.91;99228.23;104847;1259;138279;-66
2024/01/14 00:12:14;;;;;;;76.60;35.40;;;;;;;3.03;81.87;99227.15;104770;1257;73763;-66
2024/01/14 00:14:41;;;;;;;97.70;45.80;;;;;;;3.01;82.00;99230.88;104678;1259;138437;-65
2024/01/14 00:17:08;;;;;;;91.60;43.70;;;;;;;3.01;82.04;99228.27;105056;1257;73493;-59
2024/01/14 00:19:35;;;;;;;106.40;53.70;;;;;;;2.99;82.02;99224.77;104506;1258;61347;-59
2024/01/14 00:22:02;;;;;;;56.10;32.40;;;;;;;2.97;81.95;99220.37;104576;1257;138548;-67
2024/01/14 00:24:29;;;;;;;56.50;34.40;;;;;;;2.94;81.98;99216.27;104711;1257;74359;-67
2024/01/14 00:26:55;;;;;;;86.50;49.20;;;;;;;2.94;82.04;99216.63;104348;1257;138879;-66
2024/01/14 00:29:22;;;;;;;53.50;32.50;;;;;;;2.94;82.04;99214.55;104493;1259;74501;-59
2024/01/14 00:31:48;;;;;;;24.60;16.20;;;;;;;2.93;82.15;99213.14;104469;1263;61257;-59
2024/01/14 00:34:15;;;;;;;23.40;15.30;;;;;;;2.94;82.09;99213.17;104423;1259;139299;-59
2024/01/14 00:36:42;;;;;;;37.20;22.60;;;;;;;2.95;82.09;99210.39;104811;1260;75260;-66
2024/01/14 00:39:08;;;;;;;20.40;13.40;;;;;;;2.94;82.10;99208.48;104691;1259;138537;-66
2024/01/14 00:41:35;;;;;;;28.40;16.00;;;;;;;2.94;82.06;99212.99;104832;1257;73417;-59
2024/01/14 00:44:02;;;;;;;48.40;29.60;;;;;;;2.96;82.13;99215.13;104443;1259;61392;-59
2024/01/14 00:46:31;;;;;;;34.30;17.80;;;;;;;2.95;81.96;99214.73;104550;1260;137920;-58
2024/01/14 00:48:58;;;;;;;20.20;11.30;;;;;;;2.94;81.90;99212.47;104713;1257;75364;-59
2024/01/14 00:51:25;;;;;;;15.20;9.30;;;;;;;2.93;82.05;99210.55;104472;1258;138264;-61
2024/01/14 00:53:51;;;;;;;21.80;13.30;;;;;;;2.93;81.92;99205.52;104611;1259;72112;-59
2024/01/14 00:56:18;;;;;;;33.70;19.50;;;;;;;2.89;81.85;99201.42;104530;1257;139072;-59
2024/01/14 00:58:45;;;;;;;36.40;19.10;;;;;;;2.85;81.73;99197.80;104595;1257;61341;-59
2024/01/14 01:01:12;;;;;;;53.70;26.00;;;;;;;2.81;81.82;99198.39;104805;1259;75035;-59
2024/01/14 01:03:38;;;;;;;18.40;8.80;;;;;;;2.80;81.93;99194.56;104446;1261;138398;-59
2024/01/14 01:06:05;;;;;;;21.30;10.50;;;;;;;2.81;82.05;99193.54;104624;1259;73770;-65
2024/01/14 01:08:32;;;;;;;30.90;15.40;;;;;;;2.82;82.07;99191.83;104486;1258;138960;-66
2024/01/14 01:10:59;;;;;;;36.20;17.20;;;;;;;2.81;81.99;99190.26;104753;1259;61253;-65
2024/01/14 01:13:26;;;;;;;25.70;11.90;;;;;;;2.80;82.12;99185.56;104739;1257;73516;-66
2024/01/14 01:15:53;;;;;;;20.70;10.60;;;;;;;2.81;82.12;99181.08;104629;1261;138241;-65
2024/01/14 01:18:20;;;;;;;31.60;13.60;;;;;;;2.81;82.09;99181.60;104777;1258;72920;-65
2024/01/14 01:20:48;;;;;;;14.30;6.80;;;;;;;2.83;82.08;99181.48;104472;1260;138975;-65
2024/01/14 01:23:15;;;;;;;30.50;14.40;;;;;;;2.84;82.13;99176.14;104756;1260;61217;-64
2024/01/14 01:25:42;;;;;;;21.00;10.60;;;;;;;2.85;82.21;99177.04;104811;1258;74956;-65
2024/01/14 01:28:09;;;;;;;23.40;9.80;;;;;;;2.86;82.18;99175.16;104595;1261;138274;-65
2024/01/14 01:30:36;;;;;;;18.50;8.10;;;;;;;2.88;82.22;99172.79;104692;1261;73779;-65
2024/01/14 01:33:03;;;;;;;39.20;18.30;;;;;;;2.90;82.18;99173.21;104689;1261;138363;-65
2024/01/14 01:35:30;;;;;;;26.90;12.60;;;;;;;2.94;82.20;99171.07;108652;1258;60205;-58
2024/01/14 01:37:57;;;;;;;20.10;9.10;;;;;;;2.96;82.26;99165.73;108657;1256;73970;-59
2024/01/14 01:40:23;;;;;;;16.20;8.90;;;;;;;2.98;82.17;99165.63;108426;1258;138767;-57
2024/01/14 01:42:50;;;;;;;17.10;9.60;;;;;;;3.00;82.13;99163.95;108711;1256;73626;-59
2024/01/14 01:45:17;;;;;;;22.20;11.50;;;;;;;3.03;82.11;99163.89;106999;1259;138217;-65
2024/01/14 01:47:43;;;;;;;17.80;10.60;;;;;;;3.07;82.17;99162.61;104401;1259;62700;-59
2024/01/14 01:50:10;;;;;;;21.50;10.70;;;;;;;3.10;82.14;99162.18;104414;1264;138479;-59
2024/01/14 01:52:37;;;;;;;16.80;9.10;;;;;;;3.13;82.06;99160.70;104415;1264;66939;-58
2024/01/14 01:55:05;;;;;;;26.10;15.10;;;;;;;3.14;82.04;99158.83;104464;1261;72891;-65
2024/01/14 01:57:32;;;;;;;15.90;8.50;;;;;;;3.15;82.10;99163.55;104690;1258;138226;-65
2024/01/14 01:59:59;;;;;;;9.70;5.50;;;;;;;3.16;82.00;99164.60;104645;1264;61257;-65
2024/01/14 02:02:25;;;;;;;11.50;6.50;;;;;;;3.16;82.09;99163.40;104482;1264;137569;-66
2024/01/14 02:04:52;;;;;;;8.50;4.10;;;;;;;3.16;82.03;99161.13;105057;1258;66857;-66
2024/01/14 02:07:20;;;;;;;17.70;6.00;;;;;;;3.15;82.02;99162.85;104683;1259;71906;-65
2024/01/14 02:09:47;;;;;;;30.10;9.60;;;;;;;3.14;82.08;99157.79;104617;1261;138136;-65
2024/01/14 02:12:14;;;;;;;13.10;4.50;;;;;;;3.14;82.11;99156.39;104642;1261;61251;-65
2024/01/14 02:14:40;;;;;;;16.10;6.80;;;;;;;3.13;82.04;99156.20;104473;1259;138355;-66
2024/01/14 02:17:07;;;;;;;50.60;16.60;;;;;;;3.13;82.03;99151.00;104474;1259;66581;-67
2024/01/14 02:19:34;;;;;;;45.80;16.80;;;;;;;3.11;81.97;99143.83;104594;1260;72783;-66
2024/01/14 02:22:08;;;;;;;36.50;13.90;;;;;;;3.12;82.08;99145.95;104611;1259;138370;-67
2024/01/14 02:24:35;;;;;;;7.80;3.90;;;;;;;3.11;82.07;99146.97;104447;1262;61411;-66
2024/01/14 02:27:02;;;;;;;12.80;6.00;;;;;;;3.11;82.09;99149.23;104349;1263;138150;-66
2024/01/14 02:29:29;;;;;;;30.60;12.60;;;;;;;3.13;82.30;99146.31;104622;1263;65506;-65
2024/01/14 02:31:56;;;;;;;25.60;11.20;;;;;;;3.14;82.17;99148.42;104878;1258;73961;-66
2024/01/14 02:34:23;;;;;;;33.80;14.80;;;;;;;3.16;82.27;99149.86;104732;1256;139207;-66
2024/01/14 02:36:50;;;;;;;16.40;6.70;;;;;;;3.16;82.27;99149.86;104787;1259;61304;-66
2024/01/14 02:39:16;;;;;;;41.00;16.70;;;;;;;3.15;82.22;99148.27;104475;1259;138444;-65
2024/01/14 02:41:43;;;;;;;15.60;7.70;;;;;;;3.16;82.26;99150.20;104688;1261;65492;-65
2024/01/14 02:44:10;;;;;;;28.20;13.80;;;;;;;3.16;82.22;99146.58;104648;1262;73005;-65
2024/01/14 02:46:37;;;;;;;12.30;6.30;;;;;;;3.17;82.30;99142.80;104647;1257;61363;-58
2024/01/14 02:49:04;;;;;;;9.50;4.60;;;;;;;3.19;82.29;99142.34;108483;1259;60194;-58
2024/01/14 02:51:31;;;;;;;7.40;3.70;;;;;;;3.20;82.35;99139.08;108571;1257;137879;-59
2024/01/14 02:53:57;;;;;;;12.70;6.40;;;;;;;3.20;82.30;99138.38;108505;1257;64746;-58
2024/01/14 02:56:24;;;;;;;13.30;7.50;;;;;;;3.19;82.28;99134.70;108515;1258;138408;-58
2024/01/14 02:58:51;;;;;;;11.10;6.60;;;;;;;3.17;82.04;99134.14;108651;1257;59186;-58
2024/01/14 03:01:17;;;;;;;36.40;19.90;;;;;;;3.14;82.09;99133.88;108691;1257;60718;-58
2024/01/14 03:03:44;;;;;;;18.90;10.20;;;;;;;3.14;82.30;99125.20;106540;1257;138422;-65
2024/01/14 03:06:12;;;;;;;10.80;5.10;;;;;;;3.13;82.30;99127.61;104739;1257;67656;-65
2024/01/14 03:08:39;;;;;;;12.40;6.50;;;;;;;3.12;82.19;99131.38;104698;1259;138445;-65
2024/01/14 03:11:08;;;;;;;14.10;6.00;;;;;;;3.12;82.22;99130.01;104886;1256;61317;-57
2024/01/14 03:13:35;;;;;;;22.90;9.90;;;;;;;3.13;82.18;99130.55;104818;1257;61478;-65
2024/01/14 03:16:02;;;;;;;17.90;8.20;;;;;;;3.10;82.25;99129.45;104806;1259;139235;-65
2024/01/14 03:18:28;;;;;;;13.30;6.00;;;;;;;3.11;82.31;99131.02;104577;1258;65364;-58
2024/01/14 03:20:55;;;;;;;26.50;12.50;;;;;;;3.11;82.27;99128.59;104567;1256;138836;-65
2024/01/14 03:23:22;;;;;;;10.10;4.20;;;;;;;3.12;82.31;99130.02;104874;1257;61357;-58
2024/01/14 03:25:48;;;;;;;7.00;3.50;;;;;;;3.12;82.19;99128.95;104512;1263;61272;-59
2024/01/14 03:28:15;;;;;;;13.00;5.70;;;;;;;3.12;82.27;99129.64;104367;1264;138783;-59
2024/01/14 03:30:44;;;;;;;9.60;4.90;;;;;;;3.14;82.45;99129.36;104557;1261;67147;-59
2024/01/14 03:33:10;;;;;;;24.20;11.80;;;;;;;3.11;82.36;99128.61;104591;1258;137845;-60
2024/01/14 03:35:37;;;;;;;10.30;5.10;;;;;;;3.09;82.10;99123.16;104502;1257;61302;-59
2024/01/14 03:38:04;;;;;;;26.00;11.40;;;;;;;3.08;82.22;99122.77;104641;1257;61170;-66
2024/01/14 03:40:30;;;;;;;12.00;5.50;;;;;;;3.05;82.24;99121.66;104746;1260;137574;-66
2024/01/14 03:42:57;;;;;;;13.50;6.60;;;;;;;3.07;82.37;99122.77;104693;1261;67021;-59
2024/01/14 03:45:25;;;;;;;20.20;7.70;;;;;;;3.07;82.33;99123.11;104692;1261;137400;-66
2024/01/14 03:47:51;;;;;;;12.10;5.40;;;;;;;3.06;82.19;99123.77;104798;1258;61319;-66
2024/01/14 03:50:18;;;;;;;12.90;6.60;;;;;;;3.07;82.21;99123.27;104691;1261;138531;-65
2024/01/14 03:52:45;;;;;;;6.70;4.20;;;;;;;3.05;82.25;99121.66;104740;1257;72773;-66
2024/01/14 03:55:11;;;;;;;3.10;2.10;;;;;;;3.04;82.15;99124.42;104808;1257;67372;-65
2024/01/14 03:57:38;;;;;;;5.50;3.30;;;;;;;3.04;82.29;99124.21;104606;1258;138364;-59
2024/01/14 04:00:07;;;;;;;6.10;2.70;;;;;;;3.02;82.25;99127.46;104669;1261;61275;-59
2024/01/14 04:02:34;;;;;;;3.70;1.80;;;;;;;3.03;82.37;99127.48;104537;1259;138827;-64
2024/01/14 04:05:00;;;;;;;5.60;2.10;;;;;;;3.04;82.39;99128.05;104812;1258;74885;-65
2024/01/14 04:07:27;;;;;;;3.00;1.50;;;;;;;3.07;82.38;99127.61;104729;1261;67571;-66
2024/01/14 04:09:54;;;;;;;4.40;2.00;;;;;;;3.08;82.35;99135.10;104566;1257;138406;-60
2024/01/14 04:12:21;;;;;;;3.10;2.30;;;;;;;3.09;82.38;99135.83;104409;1261;61245;-59
2024/01/14 04:14:48;;;;;;;4.40;2.30;;;;;;;3.09;82.32;99133.40;104237;1257;138500;-59
2024/01/14 04:17:14;;;;;;;4.40;2.00;;;;;;;3.09;82.35;99136.86;103832;1259;72577;-59
2024/01/14 04:19:41;;;;;;;6.50;2.10;;;;;;;3.10;82.29;99133.09;104675;1261;64913;-59
2024/01/14 04:22:08;;;;;;;7.10;3.10;;;;;;;3.12;82.39;99134.17;104315;1259;138302;-59
2024/01/14 04:24:35;;;;;;;10.10;4.40;;;;;;;3.15;82.46;99131.48;104564;1261;61366;-59
2024/01/14 04:27:01;;;;;;;6.90;3.20;;;;;;;3.17;82.46;99130.48;104641;1257;138253;-59
2024/01/14 04:29:28;;;;;;;8.60;4.00;;;;;;;3.18;82.34;99131.38;104732;1261;74118;-59
2024/01/14 04:31:55;;;;;;;7.50;3.70;;;;;;;3.19;82.42;99132.80;104579;1260;66879;-59
2024/01/14 04:34:22;;;;;;;5.30;2.40;;;;;;;3.21;82.49;99134.44;104710;1261;137688;-58
2024/01/14 04:36:48;;;;;;;3.60;1.50;;;;;;;3.23;82.30;99137.41;104705;1261;61373;-59
2024/01/14 04:39:15;;;;;;;3.40;1.50;;;;;;;3.19;82.29;99133.67;104621;1260;137111;-59
2024/01/14 04:41:42;;;;;;;6.40;2.70;;;;;;;3.18;82.39;99136.23;104515;1259;74942;-60
2024/01/14 04:44:08;;;;;;;5.50;1.70;;;;;;;3.17;82.36;99139.67;104733;1261;66291;-65
2024/01/14 04:46:35;;;;;;;4.20;1.50;;;;;;;3.16;82.33;99137.74;104472;1262;137910;-59
2024/01/14 04:49:01;;;;;;;3.00;1.30;;;;;;;3.15;82.35;99144.29;104510;1259;62272;-59
2024/01/14 04:51:28;;;;;;;3.40;2.00;;;;;;;3.12;82.24;99143.86;104478;1261;137889;-64
2024/01/14 04:53:55;;;;;;;3.00;1.40;;;;;;;3.10;82.35;99144.67;104910;1259;74325;-64
2024/01/14 04:56:21;;;;;;;3.30;1.20;;;;;;;3.10;82.41;99137.23;104846;1260;139034;-65
2024/01/14 04:58:48;;;;;;;2.00;1.10;;;;;;;3.10;82.32;99136.54;104610;1262;72840;-65
2024/01/14 05:01:15;;;;;;;2.70;1.40;;;;;;;3.06;82.24;99141.45;104768;1257;61278;-59
2024/01/14 05:03:42;;;;;;;5.00;1.10;;;;;;;3.02;82.13;99144.09;104394;1264;138023;-59
2024/01/14 05:06:10;;;;;;;2.70;1.30;;;;;;;3.00;82.24;99138.83;104660;1257;74917;-59
2024/01/14 05:08:40;;;;;;;4.00;1.70;;;;;;;3.00;82.16;99140.75;108478;1261;138340;-59
2024/01/14 05:11:07;;;;;;;1.60;1.10;;;;;;;3.03;82.36;99140.16;106240;1257;73656;-66
2024/01/14 05:13:33;;;;;;;3.50;1.40;;;;;;;3.05;82.32;99132.93;104834;1261;61300;-65
2024/01/14 05:16:00;;;;;;;3.50;1.60;;;;;;;3.08;82.26;99135.08;104737;1262;138099;-65
2024/01/14 05:18:28;;;;;;;3.60;1.50;;;;;;;3.08;82.21;99133.73;104929;1261;74392;-66
2024/01/14 05:20:54;;;;;;;7.50;1.60;;;;;;;3.10;82.28;99134.10;104710;1261;138252;-64
2024/01/14 05:23:21;;;;;;;4.50;1.90;;;;;;;3.09;82.17;99131.64;104712;1260;73390;-65
2024/01/14 05:25:48;;;;;;;6.40;1.80;;;;;;;3.07;82.08;99138.01;104922;1261;61357;-64
2024/01/14 05:28:14;;;;;;;8.90;1.90;;;;;;;3.05;82.04;99136.04;104736;1261;138380;-64
2024/01/14 05:30:41;;;;;;;4.40;2.00;;;;;;;3.04;82.17;99137.73;104948;1261;75665;-65
2024/01/14 05:33:08;;;;;;;5.60;2.10;;;;;;;3.06;82.39;99137.63;104686;1261;138538;-59
2024/01/14 05:35:35;;;;;;;6.70;1.60;;;;;;;3.09;82.32;99135.81;104611;1262;72170;-59
2024/01/14 05:38:01;;;;;;;6.40;1.90;;;;;;;3.11;82.33;99139.52;104562;1259;61189;-58
2024/01/14 05:40:28;;;;;;;7.20;2.00;;;;;;;3.11;82.33;99141.23;104557;1258;137872;-57
2024/01/14 05:42:55;;;;;;;12.00;2.40;;;;;;;3.10;82.40;99144.51;104552;1259;73754;-59
2024/01/14 05:45:21;;;;;;;9.30;2.40;;;;;;;3.11;82.36;99145.39;104137;1259;138445;-59
2024/01/14 05:47:48;;;;;;;7.80;2.20;;;;;;;3.11;82.33;99149.39;104561;1261;74381;-59
2024/01/14 05:50:15;;;;;;;6.30;1.90;;;;;;;3.10;82.38;99148.86;104571;1257;138505;-60
2024/01/14 05:52:42;;;;;;;11.10;2.70;;;;;;;3.10;82.46;99151.61;104662;1261;61223;-58
2024/01/14 05:55:08;;;;;;;14.60;2.70;;;;;;;3.10;82.59;99147.27;104715;1261;75114;-59
2024/01/14 05:57:35;;;;;;;12.90;2.50;;;;;;;3.10;82.63;99144.00;104581;1258;138428;-63
2024/01/14 06:00:02;;;;;;;10.70;2.60;;;;;;;3.11;82.43;99141.42;104803;1260;73635;-65
2024/01/14 06:02:29;;;;;;;8.80;2.60;;;;;;;3.12;82.60;99142.13;104551;1271;138574;-59
2024/01/14 06:04:55;;;;;;;8.80;2.40;;;;;;;3.12;82.57;99140.06;104461;1261;61381;-65
2024/01/14 06:07:22;;;;;;;9.90;2.70;;;;;;;3.12;82.53;99137.80;104590;1258;75516;-60
2024/01/14 06:09:49;;;;;;;14.70;2.60;;;;;;;3.09;82.47;99135.65;104498;1260;138100;-66
2024/01/14 06:12:15;;;;;;;8.70;3.00;;;;;;;3.05;82.54;99127.38;104678;1261;71962;-65
2024/01/14 06:14:42;;;;;;;8.30;2.30;;;;;;;3.02;82.30;99125.21;104625;1261;138289;-66
2024/01/14 06:17:09;;;;;;;10.40;3.50;;;;;;;2.94;82.14;99119.95;104574;1258;61168;-63
2024/01/14 06:19:35;;;;;;;15.20;3.70;;;;;;;2.87;82.41;99120.44;104658;1257;75918;-65
2024/01/14 06:22:02;;;;;;;11.70;3.40;;;;;;;2.83;82.40;99123.98;104486;1262;139235;-64
2024/01/14 06:24:29;;;;;;;12.00;2.90;;;;;;;2.76;82.30;99122.70;108456;1261;73680;-59
2024/01/14 06:26:56;;;;;;;12.00;3.10;;;;;;;2.69;82.22;99121.99;105770;1257;138732;-64
2024/01/14 06:29:24;;;;;;;11.00;2.60;;;;;;;2.66;82.53;99125.20;104692;1264;61277;-65
2024/01/14 06:31:50;;;;;;;9.60;2.80;;;;;;;2.63;82.57;99123.73;104657;1262;74086;-64
2024/01/14 06:34:17;;;;;;;8.60;2.70;;;;;;;2.61;82.54;99126.75;104692;1261;138062;-64
2024/01/14 06:36:44;;;;;;;10.00;2.70;;;;;;;2.56;82.51;99127.82;104833;1261;72083;-65
2024/01/14 06:39:10;;;;;;;8.00;3.20;;;;;;;2.52;82.63;99128.73;104529;1257;138558;-65
2024/01/14 06:41:37;;;;;;;11.50;3.30;;;;;;;2.46;82.60;99127.84;104642;1265;61331;-67
2024/01/14 06:44:04;;;;;;;13.80;4.00;;;;;;;2.38;82.39;99133.16;104623;1261;74178;-64
2024/01/14 06:46:31;;;;;;;11.40;3.00;;;;;;;2.32;82.52;99137.98;108414;1260;138523;-60
2024/01/14 06:48:57;;;;;;;8.20;3.30;;;;;;;2.27;82.65;99141.81;108661;1257;71776;-65
2024/01/14 06:51:24;;;;;;;10.60;3.30;;;;;;;2.25;82.70;99144.15;104714;1262;137997;-64
2024/01/14 06:53:51;;;;;;;11.80;3.70;;;;;;;2.23;82.72;99148.95;104764;1264;61252;-64
2024/01/14 06:56:18;;;;;;;13.00;3.70;;;;;;;2.23;82.95;99152.75;104426;1262;138268;-59
2024/01/14 06:58:45;;;;;;;10.90;3.40;;;;;;;2.22;82.81;99157.55;103978;1259;67127;-59
2024/01/14 07:01:12;;;;;;;9.00;3.40;;;;;;;2.20;82.89;99165.80;104394;1263;73036;-61
2024/01/14 07:03:41;;;;;;;11.40;3.60;;;;;;;2.20;83.08;99166.67;104292;1266;137975;-63
2024/01/14 07:06:08;;;;;;;10.80;3.80;;;;;;;2.20;83.08;99173.44;104638;1257;61359;-59
2024/01/14 07:08:35;;;;;;;23.10;8.90;;;;;;;2.23;83.20;99174.22;104586;1263;139062;-64
2024/01/14 07:11:01;;;;;;;17.60;5.60;;;;;;;2.29;83.35;99182.39;104780;1260;67631;-64
2024/01/14 07:13:28;;;;;;;17.40;4.70;;;;;;;2.38;83.22;99179.19;104750;1260;73100;-64
2024/01/14 07:16:01;;;;;;;15.10;4.40;;;;;;;2.45;83.25;99183.92;104854;1257;138366;-64
2024/01/14 07:18:29;;;;;;;15.10;3.50;;;;;;;2.52;83.15;99186.58;105349;1257;61271;-63
2024/01/14 07:20:55;;;;;;;11.50;3.50;;;;;;;2.57;83.08;99185.66;104426;1262;138903;-63
2024/01/14 07:23:22;;;;;;;15.90;3.50;;;;;;;2.56;82.86;99186.36;104701;1261;65379;-65
2024/01/14 07:25:49;;;;;;;10.20;3.60;;;;;;;2.58;82.63;99185.04;104308;1264;73342;-64
2024/01/14 07:28:15;;;;;;;14.70;4.10;;;;;;;2.61;82.62;99180.13;104429;1260;138358;-64
2024/01/14 07:30:42;;;;;;;12.80;3.70;;;;;;;2.65;82.62;99181.45;104476;1262;61402;-63
2024/01/14 07:33:09;;;;;;;17.20;4.00;;;;;;;2.68;82.33;99185.69;104380;1260;139490;-65
2024/01/14 07:35:35;;;;;;;18.80;3.90;;;;;;;2.71;82.44;99185.09;104725;1260;67882;-65
2024/01/14 07:38:04;;;;;;;12.60;3.30;;;;;;;2.72;82.22;99184.42;104621;1263;72209;-65
2024/01/14 07:40:30;;;;;;;21.10;4.20;;;;;;;2.75;82.28;99184.17;108411;1257;138025;-59
2024/01/14 07:42:57;;;;;;;21.70;8.40;;;;;;;2.82;82.38;99187.35;106721;1257;61544;-60
2024/01/14 07:45:24;;;;;;;14.50;5.10;;;;;;;2.85;82.29;99187.77;104624;1260;137322;-59
2024/01/14 07:47:51;;;;;;;17.70;5.00;;;;;;;2.82;81.85;99181.45;104616;1267;65965;-60
2024/01/14 07:50:17;;;;;;;14.10;3.90;;;;;;;2.75;81.68;99184.70;104332;1262;138190;-64
2024/01/14 07:52:44;;;;;;;15.20;3.80;;;;;;;2.67;81.69;99182.02;104503;1264;60514;-61
2024/01/14 07:55:11;;;;;;;13.30;4.30;;;;;;;2.60;81.71;99179.20;104668;1260;61379;-60
2024/01/14 07:57:37;;;;;;;11.70;4.40;;;;;;;2.54;81.68;99178.67;104357;1264;138141;-59
2024/01/14 08:00:05;;;;;;;17.10;4.40;;;;;;;2.48;81.59;99180.76;104557;1268;66630;-60
2024/01/14 08:02:32;;;;;;;12.80;3.80;;;;;;;2.44;81.78;99182.33;108504;1257;138724;-59
2024/01/14 08:04:59;;;;;;;12.80;4.40;;;;;;;2.39;81.70;99183.91;108630;1258;61244;-58
2024/01/14 08:07:25;;;;;;;19.70;5.50;;;;;;;2.35;81.78;99189.84;108631;1257;59101;-58
2024/01/14 08:09:52;;;;;;;12.50;4.40;;;;;;;2.32;81.75;99185.77;108498;1260;140193;-58
2024/01/14 08:12:28;;;;;;;16.90;4.40;;;;;;;2.31;81.86;99191.64;108526;1257;67409;-59
2024/01/14 08:15:09;;;;;;;20.30;5.50;;;;;;;2.30;81.83;99194.01;108094;1257;182757;-59
2024/01/14 08:17:37;;;;;;;18.70;6.10;;;;;;;2.30;81.85;99195.92;108572;1256;59851;-59
2024/01/14 08:20:05;;;;;;;25.70;7.60;;;;;;;2.33;81.88;99193.91;108604;1257;61179;-59
2024/01/14 08:22:33;;;;;;;30.40;11.70;;;;;;;2.33;81.82;99186.48;108252;1258;137737;-61
2024/01/14 08:25:04;;;;;;;27.10;9.40;;;;;;;2.33;81.72;99186.50;108220;1257;65101;-59
2024/01/14 08:27:31;;;;;;;14.60;5.30;;;;;;;2.34;81.59;99184.80;108344;1257;138774;-60
2024/01/14 08:29:58;;;;;;;18.40;5.70;;;;;;;2.38;81.85;99187.17;108734;1258;59585;-59
2024/01/14 08:32:25;;;;;;;21.60;5.90;;;;;;;2.45;81.97;99189.83;108509;1257;138609;-58
2024/01/14 08:34:51;;;;;;;29.60;11.80;;;;;;;2.52;81.82;99191.60;108524;1257;75764;-59
2024/01/14 08:37:18;;;;;;;18.00;6.60;;;;;;;2.59;81.91;99192.50;108637;1257;65470;-59
2024/01/14 08:39:45;;;;;;;25.50;10.50;;;;;;;2.65;81.71;99193.39;108485;1257;137796;-59
2024/01/14 08:42:11;;;;;;;17.10;6.40;;;;;;;2.68;81.70;99188.82;108538;1262;58939;-60
2024/01/14 08:44:38;;;;;;;18.00;7.60;;;;;;;2.72;81.67;99198.30;105595;1260;139062;-59
2024/01/14 08:47:04;;;;;;;21.70;6.50;;;;;;;2.75;81.61;99202.73;104490;1262;74673;-59
2024/01/14 08:49:31;;;;;;;14.20;5.00;;;;;;;2.79;81.50;99201.46;104617;1261;67026;-60
2024/01/14 08:51:59;;;;;;;13.00;4.50;;;;;;;2.85;81.40;99202.50;104509;1258;138539;-58
2024/01/14 08:54:26;;;;;;;27.50;6.00;;;;;;;2.88;81.37;99203.80;104531;1262;61303;-59
2024/01/14 08:56:52;;;;;;;20.30;7.80;;;;;;;2.92;81.37;99201.85;104554;1261;139067;-59
2024/01/14 08:59:19;;;;;;;13.50;5.60;;;;;;;2.97;81.34;99201.83;104780;1263;74906;-59
2024/01/14 09:01:46;;;;;;;11.90;4.50;;;;;;;3.02;81.32;99210.48;104671;1258;66678;-59
2024/01/14 09:04:12;;;;;;;15.50;5.00;;;;;;;3.08;81.30;99208.77;104423;1260;139677;-60
2024/01/14 09:06:39;;;;;;;11.40;4.30;;;;;;;3.12;81.18;99210.94;104643;1261;61442;-60
2024/01/14 09:09:09;;;;;;;20.70;9.50;;;;;;;3.16;80.98;99209.00;104489;1257;137456;-62
2024/01/14 09:11:36;;;;;;;14.40;6.10;;;;;;;3.20;81.00;99211.20;104737;1257;74237;-59
2024/01/14 09:14:02;;;;;;;22.60;6.70;;;;;;;3.22;80.74;99206.91;104807;1259;67960;-59
2024/01/14 09:16:29;;;;;;;18.10;5.10;;;;;;;3.26;80.68;99207.18;104876;1257;137910;-59
2024/01/14 09:18:56;;;;;;;13.40;5.20;;;;;;;3.28;80.65;99209.16;104765;1258;61698;-59
2024/01/14 09:21:23;;;;;;;40.90;20.30;;;;;;;3.30;80.54;99212.02;104312;1264;138155;-59
2024/01/14 09:23:50;;;;;;;16.30;6.20;;;;;;;3.31;80.52;99209.96;104530;1265;75082;-59
2024/01/14 09:26:17;;;;;;;16.10;5.00;;;;;;;3.35;80.55;99206.60;104701;1257;138842;-61
2024/01/14 09:28:43;;;;;;;14.80;5.90;;;;;;;3.42;80.66;99210.27;104622;1263;74817;-59
2024/01/14 09:31:12;;;;;;;16.90;5.50;;;;;;;3.57;80.69;99213.29;104828;1263;61280;-58
2024/01/14 09:33:38;;;;;;;11.90;3.80;;;;;;;3.79;80.89;99210.94;104692;1260;138339;-59
2024/01/14 09:36:06;;;;;;;12.90;3.70;;;;;;;4.03;80.79;99216.42;104700;1260;75756;-60
2024/01/14 09:38:33;;;;;;;21.30;5.20;;;;;;;4.23;80.41;99218.52;108801;1257;137488;-60
2024/01/14 09:41:29;;;;;;;11.10;4.90;;;;;;;4.41;80.24;99215.84;108896;1257;71597;-60
2024/01/14 09:43:55;;;;;;;18.70;6.00;;;;;;;4.59;79.95;99212.82;104782;1269;61257;-59
2024/01/14 09:46:22;;;;;;;15.00;5.30;;;;;;;4.68;79.58;99212.52;104139;1264;137775;-60
2024/01/14 09:48:49;;;;;;;18.20;4.50;;;;;;;4.79;79.41;99217.28;104205;1264;75864;-67
2024/01/14 09:51:16;;;;;;;12.80;4.60;;;;;;;4.89;79.25;99210.90;104450;1264;138473;-60
2024/01/14 09:53:42;;;;;;;14.00;3.60;;;;;;;4.95;79.00;99210.18;104259;1264;73117;-59
2024/01/14 09:56:10;;;;;;;11.90;3.70;;;;;;;4.98;78.79;99213.88;103943;1270;61495;-61
2024/01/14 09:58:36;;;;;;;12.50;3.90;;;;;;;4.98;78.44;99206.25;104043;1269;138346;-59
2024/01/14 10:01:08;;;;;;;14.30;6.60;;;;;;;4.99;78.32;99205.05;104108;1270;73935;-60
2024/01/14 10:03:35;;;;;;;8.80;3.30;;;;;;;5.01;78.07;99207.02;108004;1264;138688;-58
2024/01/14 10:06:02;;;;;;;20.70;7.40;;;;;;;5.03;77.92;99206.89;108201;1263;71199;-59
2024/01/14 10:08:28;;;;;;;12.20;4.00;;;;;;;5.06;77.78;99207.14;107996;1264;137800;-58
2024/01/14 10:10:55;;;;;;;10.40;4.00;;;;;;;5.12;77.69;99202.91;108164;1264;59593;-58
2024/01/14 10:13:22;;;;;;;13.70;4.10;;;;;;;5.13;77.47;99198.23;105650;1264;74896;-60
2024/01/14 10:15:49;;;;;;;15.50;4.20;;;;;;;5.17;77.18;99205.64;104036;1270;138243;-60
2024/01/14 10:18:18;;;;;;;12.10;4.10;;;;;;;5.18;77.10;99203.37;104085;1264;73794;-60
2024/01/14 10:20:45;;;;;;;16.20;4.80;;;;;;;5.17;77.02;99208.58;104102;1257;139190;-60
2024/01/14 10:23:11;;;;;;;10.60;3.20;;;;;;;5.14;76.80;99212.00;104408;1260;61168;-59
2024/01/14 10:25:38;;;;;;;10.30;4.40;;;;;;;5.10;76.57;99208.59;104671;1258;73839;-58
2024/01/14 10:28:05;;;;;;;11.00;3.80;;;;;;;5.05;76.61;99207.98;103961;1258;137767;-59
2024/01/14 10:30:32;;;;;;;9.80;3.70;;;;;;;5.02;76.61;99204.96;104603;1257;73233;-59
2024/01/14 10:32:59;;;;;;;9.80;3.30;;;;;;;5.04;76.57;99206.92;107960;1257;137498;-59
2024/01/14 10:35:26;;;;;;;9.30;3.70;;;;;;;5.06;76.65;99202.77;108601;1257;59061;-60
2024/01/14 10:37:53;;;;;;;13.80;4.60;;;;;;;5.06;76.48;99205.91;108436;1257;74670;-60
2024/01/14 10:40:21;;;;;;;15.70;3.70;;;;;;;5.07;76.37;99201.41;108500;1257;138242;-60
2024/01/14 10:42:47;;;;;;;15.90;4.10;;;;;;;5.10;76.36;99202.36;108504;1257;71928;-59
2024/01/14 10:45:14;;;;;;;14.40;4.20;;;;;;;5.16;76.38;99201.59;108119;1257;138743;-59
2024/01/14 10:47:44;;;;;;;11.50;4.30;;;;;;;5.19;76.19;99195.77;104749;1260;61366;-59
2024/01/14 10:50:12;;;;;;;15.80;5.00;;;;;;;5.22;75.94;99197.39;108500;1256;75111;-60
2024/01/14 10:52:41;;;;;;;14.80;4.70;;;;;;;5.25;75.96;99202.33;108780;1256;66236;-60
2024/01/14 10:55:20;;;;;;;17.20;6.10;;;;;;;5.28;75.88;99198.04;108915;1255;71867;-61
2024/01/14 10:57:46;;;;;;;17.70;5.90;;;;;;;5.30;75.84;99195.64;108711;1256;137768;-60
2024/01/14 11:00:13;;;;;;;16.10;6.10;;;;;;;5.31;75.78;99192.89;108757;1257;60086;-60
2024/01/14 11:02:41;;;;;;;22.00;8.30;;;;;;;5.35;75.84;99192.10;108731;1257;138152;-60
2024/01/14 11:05:08;;;;;;;13.50;5.70;;;;;;;5.40;75.74;99192.36;108717;1257;65310;-60
2024/01/14 11:07:35;;;;;;;12.00;4.30;;;;;;;5.42;75.57;99185.98;108571;1257;73428;-60
2024/01/14 11:10:07;;;;;;;12.00;4.30;;;;;;;5.42;75.41;99184.92;108531;1257;137661;-60
2024/01/14 11:13:21;;;;;;;10.90;4.00;;;;;;;5.43;75.33;99181.84;108472;1257;61507;-60
2024/01/14 11:15:53;;;;;;;14.30;3.80;;;;;;;5.47;75.35;99179.45;108059;1263;139615;-60
2024/01/14 11:18:30;;;;;;;12.20;3.90;;;;;;;5.55;75.54;99175.29;108241;1263;64434;-61
2024/01/14 11:21:20;;;;;;;11.30;3.90;;;;;;;5.64;75.31;99173.36;108096;1263;138571;-60